Santa Margherita — V7JA2 — position and weather

sailwx.info

Track history (hours):
 
Tides and Currents Weather Stations Pressure Air Temp Water Temp Dewpoint Dewpoint Depression Visibility Wind Speed Wind Dir Waves Ship Positions

Santa Margherita

Last reported at 2016-Jan-28 19:18 UTC. Time now 2016-Feb-13 08:56 UTC.
Position N 02°01' E 102°10'.
Warning: this ship's position is 15 days out of date.

Length 190 m; draft 10.1 m.

MMSI: 538090191.

Date/timePositionNaut miles runAvg speedWind from/ knotsBaromVisibWave heightAir tempDewpointWater temp
2016-Jan-28 19:18N 02°01' E 102°10'1013.8
2016-Jan-28 18:33N 01°55' E 102°19'1413.3
2016-Jan-28 17:32N 01°49' E 102°31'1212.7
2016-Jan-28 16:33N 01°45' E 102°43'6713.4
2016-Jan-28 11:33N 01°11' E 103°40'1110.7
2016-Jan-28 10:33N 01°12' E 103°51'1110.3
2016-Jan-28 09:30N 01°17' E 104°01'0 0.2
2016-Jan-28 07:24N 01°17' E 104°01'0 0.1
2016-Jan-28 05:33N 01°17' E 104°01'0 0.0
2016-Jan-28 04:30N 01°17' E 104°01'0 0.0
2016-Jan-28 01:33N 01°17' E 104°01'0 0.0
2016-Jan-28 00:12N 01°17' E 104°01'0 0.0
2016-Jan-27 22:33N 01°17' E 104°01'0 0.0
2016-Jan-27 21:30N 01°17' E 104°01'0 0.0
2016-Jan-27 20:15N 01°17' E 104°01'0 0.0
2016-Jan-27 18:28N 01°17' E 104°01'3 3.4
2016-Jan-27 17:32N 01°16' E 103°58'7 7.3
2016-Jan-27 16:32N 01°16' E 104°05'  
2016-Jan-22 14:33N 22°34' E 119°59'9 8.9
2016-Jan-22 13:33N 22°37' E 120°08'5 4.9
2016-Jan-22 12:33N 22°38' E 120°13'4 3.9
2016-Jan-22 11:32N 22°36' E 120°17'0 0.0
2016-Jan-22 10:20N 22°36' E 120°17'0 0.1
2016-Jan-22 09:32N 22°36' E 120°17'0 0.0
2016-Jan-22 08:32N 22°36' E 120°17'0 0.0
2016-Jan-22 07:32N 22°36' E 120°17'0 0.0
2016-Jan-22 06:20N 22°36' E 120°17'0 0.0
2016-Jan-22 04:26N 22°36' E 120°17'0 0.0
2016-Jan-22 03:32N 22°36' E 120°17'0 0.0
2016-Jan-22 02:32N 22°36' E 120°17'0 0.0
2016-Jan-22 01:32N 22°36' E 120°17'0 0.0
2016-Jan-22 00:08N 22°36' E 120°17'0 0.1
2016-Jan-21 23:26N 22°36' E 120°17'0 0.0
2016-Jan-21 21:32N 22°36' E 120°17'0 0.0
2016-Jan-21 10:31N 22°36' E 120°17'0 0.0
2016-Jan-21 08:25N 22°36' E 120°17'0 0.1
2016-Jan-21 07:31N 22°36' E 120°17'0 0.0
2016-Jan-21 06:31N 22°36' E 120°17'0 0.1
2016-Jan-21 05:31N 22°36' E 120°17'0 0.0
2016-Jan-21 04:31N 22°36' E 120°17'0 0.1
2016-Jan-21 03:31N 22°36' E 120°17'0 0.0
2016-Jan-21 02:31N 22°36' E 120°17'0 0.0
2016-Jan-21 01:31N 22°36' E 120°17'0 0.0
2016-Jan-21 00:31N 22°36' E 120°17'0 0.1
2016-Jan-20 23:25N 22°36' E 120°17'0 0.0
2016-Jan-20 22:31N 22°36' E 120°17'0 0.1
2016-Jan-20 21:31N 22°36' E 120°17'0 0.1
2016-Jan-20 20:25N 22°36' E 120°17'0 0.0
2016-Jan-20 19:25N 22°36' E 120°17'0 0.1
2016-Jan-20 18:31N 22°36' E 120°17'0 0.1
2016-Jan-20 17:25N 22°36' E 120°17'0 0.1
2016-Jan-20 16:31N 22°36' E 120°17'0 0.0
2016-Jan-20 15:31N 22°36' E 120°17'0 0.0
2016-Jan-20 14:31N 22°36' E 120°17'0 0.0
2016-Jan-20 13:19N 22°36' E 120°17'0 0.0
2016-Jan-20 12:31N 22°36' E 120°17'0 0.0
2016-Jan-20 11:25N 22°36' E 120°17'0 0.0
2016-Jan-20 10:13N 22°36' E 120°17'0 0.0
2016-Jan-20 08:13N 22°36' E 120°17'0 0.1
2016-Jan-20 07:31N 22°36' E 120°17'0 0.1
2016-Jan-20 06:31N 22°36' E 120°17'0 0.0
2016-Jan-20 05:31N 22°36' E 120°17'0 0.0
2016-Jan-20 04:31N 22°36' E 120°17'0 0.1
2016-Jan-20 03:25N 22°36' E 120°17'0 0.0
2016-Jan-20 02:24N 22°36' E 120°17'0 0.0
2016-Jan-20 01:30N 22°36' E 120°17'0 0.1
2016-Jan-20 00:30N 22°36' E 120°17'0 0.1
2016-Jan-19 23:30N 22°36' E 120°17'0 0.0
2016-Jan-19 22:30N 22°36' E 120°17'0 0.0
2016-Jan-19 21:24N 22°36' E 120°17'0 0.0
2016-Jan-19 20:30N 22°36' E 120°17'0 0.0
2016-Jan-19 19:30N 22°36' E 120°17'0 0.1
2016-Jan-19 18:30N 22°36' E 120°17'0 0.1
2016-Jan-19 17:30N 22°36' E 120°17'0 0.1
2016-Jan-19 16:30N 22°36' E 120°17'0 0.0
2016-Jan-19 15:30N 22°36' E 120°17'0 0.1
2016-Jan-19 14:30N 22°36' E 120°17'0 0.0
2016-Jan-19 13:18N 22°36' E 120°17'0 0.0
2016-Jan-19 12:12N 22°36' E 120°17'0 0.0
2016-Jan-19 11:30N 22°36' E 120°17'0 0.0
2016-Jan-19 10:18N 22°36' E 120°17'0 0.0
2016-Jan-19 09:30N 22°36' E 120°17'0 0.1
2016-Jan-19 08:30N 22°36' E 120°17'0 0.0
2016-Jan-19 07:30N 22°36' E 120°17'0 0.1
2016-Jan-19 06:24N 22°36' E 120°17'0 0.0
2016-Jan-19 03:30N 22°36' E 120°17'0 0.1
2016-Jan-19 02:30N 22°36' E 120°17'0 0.1
2016-Jan-19 01:30N 22°36' E 120°17'0 0.1
2016-Jan-19 00:30N 22°36' E 120°17'0 0.1
2016-Jan-18 23:30N 22°36' E 120°17'0 0.0
2016-Jan-18 22:30N 22°36' E 120°17'0 0.1
2016-Jan-18 21:30N 22°36' E 120°17'0 0.1
2016-Jan-18 20:30N 22°36' E 120°17'0 0.1
2016-Jan-18 19:30N 22°36' E 120°17'  
Track history (hours):
 
Tides and Currents Weather Stations Pressure Air Temp Water Temp Dewpoint Dewpoint Depression Visibility Wind Speed Wind Dir Waves Ship Positions

Santa Margherita

Last reported at 2016-Jan-28 19:18 UTC. Time now 2016-Feb-13 08:56 UTC.
Position N 02°01' E 102°10'.
Warning: this ship's position is 15 days out of date.

Length 190 m; draft 10.1 m.

MMSI: 538090191.

Date/timePositionNaut miles runAvg speedWind from/ knotsBaromVisibWave heightAir tempDewpointWater temp
2016-Jan-28 19:18N 02°01' E 102°10'1013.8
2016-Jan-28 18:33N 01°55' E 102°19'1413.3
2016-Jan-28 17:32N 01°49' E 102°31'1212.7
2016-Jan-28 16:33N 01°45' E 102°43'6713.4
2016-Jan-28 11:33N 01°11' E 103°40'1110.7
2016-Jan-28 10:33N 01°12' E 103°51'1110.3
2016-Jan-28 09:30N 01°17' E 104°01'0 0.2
2016-Jan-28 07:24N 01°17' E 104°01'0 0.1
2016-Jan-28 05:33N 01°17' E 104°01'0 0.0
2016-Jan-28 04:30N 01°17' E 104°01'0 0.0
2016-Jan-28 01:33N 01°17' E 104°01'0 0.0
2016-Jan-28 00:12N 01°17' E 104°01'0 0.0
2016-Jan-27 22:33N 01°17' E 104°01'0 0.0
2016-Jan-27 21:30N 01°17' E 104°01'0 0.0
2016-Jan-27 20:15N 01°17' E 104°01'0 0.0
2016-Jan-27 18:28N 01°17' E 104°01'3 3.4
2016-Jan-27 17:32N 01°16' E 103°58'7 7.3
2016-Jan-27 16:32N 01°16' E 104°05'  
2016-Jan-22 14:33N 22°34' E 119°59'9 8.9
2016-Jan-22 13:33N 22°37' E 120°08'5 4.9
2016-Jan-22 12:33N 22°38' E 120°13'4 3.9
2016-Jan-22 11:32N 22°36' E 120°17'0 0.0
2016-Jan-22 10:20N 22°36' E 120°17'0 0.1
2016-Jan-22 09:32N 22°36' E 120°17'0 0.0
2016-Jan-22 08:32N 22°36' E 120°17'0 0.0
2016-Jan-22 07:32N 22°36' E 120°17'0 0.0
2016-Jan-22 06:20N 22°36' E 120°17'0 0.0
2016-Jan-22 04:26N 22°36' E 120°17'0 0.0
2016-Jan-22 03:32N 22°36' E 120°17'0 0.0
2016-Jan-22 02:32N 22°36' E 120°17'0 0.0
2016-Jan-22 01:32N 22°36' E 120°17'0 0.0
2016-Jan-22 00:08N 22°36' E 120°17'0 0.1
2016-Jan-21 23:26N 22°36' E 120°17'0 0.0
2016-Jan-21 21:32N 22°36' E 120°17'0 0.0
2016-Jan-21 10:31N 22°36' E 120°17'0 0.0
2016-Jan-21 08:25N 22°36' E 120°17'0 0.1
2016-Jan-21 07:31N 22°36' E 120°17'0 0.0
2016-Jan-21 06:31N 22°36' E 120°17'0 0.1
2016-Jan-21 05:31N 22°36' E 120°17'0 0.0
2016-Jan-21 04:31N 22°36' E 120°17'0 0.1
2016-Jan-21 03:31N 22°36' E 120°17'0 0.0
2016-Jan-21 02:31N 22°36' E 120°17'0 0.0
2016-Jan-21 01:31N 22°36' E 120°17'0 0.0
2016-Jan-21 00:31N 22°36' E 120°17'0 0.1
2016-Jan-20 23:25N 22°36' E 120°17'0 0.0
2016-Jan-20 22:31N 22°36' E 120°17'0 0.1
2016-Jan-20 21:31N 22°36' E 120°17'0 0.1
2016-Jan-20 20:25N 22°36' E 120°17'0 0.0
2016-Jan-20 19:25N 22°36' E 120°17'0 0.1
2016-Jan-20 18:31N 22°36' E 120°17'0 0.1
2016-Jan-20 17:25N 22°36' E 120°17'0 0.1
2016-Jan-20 16:31N 22°36' E 120°17'0 0.0
2016-Jan-20 15:31N 22°36' E 120°17'0 0.0
2016-Jan-20 14:31N 22°36' E 120°17'0 0.0
2016-Jan-20 13:19N 22°36' E 120°17'0 0.0
2016-Jan-20 12:31N 22°36' E 120°17'0 0.0
2016-Jan-20 11:25N 22°36' E 120°17'0 0.0
2016-Jan-20 10:13N 22°36' E 120°17'0 0.0
2016-Jan-20 08:13N 22°36' E 120°17'0 0.1
2016-Jan-20 07:31N 22°36' E 120°17'0 0.1
2016-Jan-20 06:31N 22°36' E 120°17'0 0.0
2016-Jan-20 05:31N 22°36' E 120°17'0 0.0
2016-Jan-20 04:31N 22°36' E 120°17'0 0.1
2016-Jan-20 03:25N 22°36' E 120°17'0 0.0
2016-Jan-20 02:24N 22°36' E 120°17'0 0.0
2016-Jan-20 01:30N 22°36' E 120°17'0 0.1
2016-Jan-20 00:30N 22°36' E 120°17'0 0.1
2016-Jan-19 23:30N 22°36' E 120°17'0 0.0
2016-Jan-19 22:30N 22°36' E 120°17'0 0.0
2016-Jan-19 21:24N 22°36' E 120°17'0 0.0
2016-Jan-19 20:30N 22°36' E 120°17'0 0.0
2016-Jan-19 19:30N 22°36' E 120°17'0 0.1
2016-Jan-19 18:30N 22°36' E 120°17'0 0.1
2016-Jan-19 17:30N 22°36' E 120°17'0 0.1
2016-Jan-19 16:30N 22°36' E 120°17'0 0.0
2016-Jan-19 15:30N 22°36' E 120°17'0 0.1
2016-Jan-19 14:30N 22°36' E 120°17'0 0.0
2016-Jan-19 13:18N 22°36' E 120°17'0 0.0
2016-Jan-19 12:12N 22°36' E 120°17'0 0.0
2016-Jan-19 11:30N 22°36' E 120°17'0 0.0
2016-Jan-19 10:18N 22°36' E 120°17'0 0.0
2016-Jan-19 09:30N 22°36' E 120°17'0 0.1
2016-Jan-19 08:30N 22°36' E 120°17'0 0.0
2016-Jan-19 07:30N 22°36' E 120°17'0 0.1
2016-Jan-19 06:24N 22°36' E 120°17'0 0.0
2016-Jan-19 03:30N 22°36' E 120°17'0 0.1
2016-Jan-19 02:30N 22°36' E 120°17'0 0.1
2016-Jan-19 01:30N 22°36' E 120°17'0 0.1
2016-Jan-19 00:30N 22°36' E 120°17'0 0.1
2016-Jan-18 23:30N 22°36' E 120°17'0 0.0
2016-Jan-18 22:30N 22°36' E 120°17'0 0.1
2016-Jan-18 21:30N 22°36' E 120°17'0 0.1
2016-Jan-18 20:30N 22°36' E 120°17'0 0.1
2016-Jan-18 19:30N 22°36' E 120°17'  

Dump ship's entire track history